Time,TemperatureF,DewpointF,PressureIn,WindDirection,WindDirectionDegrees,WindSpeedMPH,WindSpeedGustMPH,Humidity,HourlyPrecipIn,Conditions,Clouds,dailyrainin,SoftwareType,DateUTC
2013-01-30 00:12:00,61.9,58.0,29.32,ESE,103,18.0,26.0,88,0.00,,,0.00,weatherlink.com 1.10,2013-01-30 05:12:00,
2013-01-30 00:27:00,62.2,59.0,29.30,East,89,16.0,24.0,88,0.00,,,0.00,weatherlink.com 1.10,2013-01-30 05:27:00,
2013-01-30 00:42:00,62.8,59.0,29.28,East,101,20.0,28.0,87,0.00,,,0.00,weatherlink.com 1.10,2013-01-30 05:42:00,
2013-01-30 00:57:00,63.2,59.0,29.27,East,92,22.0,32.0,86,0.00,,,0.00,weatherlink.com 1.10,2013-01-30 05:57:00,
2013-01-30 01:13:00,57.2,54.0,29.34,South,185,20.0,26.0,90,0.12,,,0.12,weatherlink.com 1.10,2013-01-30 06:13:00,
2013-01-30 01:28:00,54.3,52.0,29.38,SSW,202,8.0,14.0,93,0.26,,,0.26,weatherlink.com 1.10,2013-01-30 06:28:00,
2013-01-30 01:43:00,53.3,52.0,29.39,SSW,200,2.0,14.0,95,0.32,,,0.32,weatherlink.com 1.10,2013-01-30 06:43:00,
2013-01-30 01:58:00,52.8,52.0,29.38,SW,223,3.0,8.0,96,0.34,,,0.34,weatherlink.com 1.10,2013-01-30 06:58:00,
2013-01-30 02:13:00,52.3,51.0,29.39,SW,225,3.0,9.0,96,0.22,,,0.36,weatherlink.com 1.10,2013-01-30 07:13:00,
2013-01-30 02:28:00,52.0,51.0,29.38,WSW,244,1.0,7.0,96,0.12,,,0.38,weatherlink.com 1.10,2013-01-30 07:28:00,
2013-01-30 02:43:00,51.8,51.0,29.37,NW,313,2.0,5.0,96,0.08,,,0.40,weatherlink.com 1.10,2013-01-30 07:43:00,
2013-01-30 02:58:00,51.5,50.0,29.37,NW,307,0.0,2.0,96,0.08,,,0.42,weatherlink.com 1.10,2013-01-30 07:58:00,
2013-01-30 03:13:00,51.2,50.0,29.38,NW,307,0.0,0.0,96,0.07,,,0.43,weatherlink.com 1.10,2013-01-30 08:13:00,
2013-01-30 03:28:00,50.8,50.0,29.38,NW,317,0.0,0.0,96,0.06,,,0.44,weatherlink.com 1.10,2013-01-30 08:28:00,
2013-01-30 03:43:00,50.4,49.0,29.38,ENE,71,2.0,4.0,96,0.06,,,0.46,weatherlink.com 1.10,2013-01-30 08:43:00,
2013-01-30 03:58:00,49.9,49.0,29.38,East,90,0.0,3.0,96,0.06,,,0.48,weatherlink.com 1.10,2013-01-30 08:58:00,
2013-01-30 04:13:00,49.9,49.0,29.39,East,90,0.0,1.0,97,0.05,,,0.49,weatherlink.com 1.10,2013-01-30 09:13:00,
2013-01-30 04:28:00,50.2,49.0,29.39,ESE,123,1.0,2.0,97,0.09,,,0.53,weatherlink.com 1.10,2013-01-30 09:28:00,
2013-01-30 04:43:00,50.1,49.0,29.39,ESE,104,5.0,7.0,97,0.10,,,0.56,weatherlink.com 1.10,2013-01-30 09:43:00,
2013-01-30 04:58:00,50.2,49.0,29.38,East,86,7.0,8.0,97,0.14,,,0.62,weatherlink.com 1.10,2013-01-30 09:58:00,
2013-01-30 05:13:00,50.0,49.0,29.35,ENE,69,0.0,8.0,97,0.14,,,0.64,weatherlink.com 1.10,2013-01-30 10:13:00,
2013-01-30 05:28:00,50.1,49.0,29.32,ENE,69,3.0,7.0,97,0.11,,,0.64,weatherlink.com 1.10,2013-01-30 10:28:00,
2013-01-30 05:43:00,49.9,49.0,29.32,ENE,78,3.0,7.0,97,0.07,,,0.64,weatherlink.com 1.10,2013-01-30 10:43:00,
2013-01-30 05:58:00,49.9,49.0,29.34,East,92,5.0,9.0,97,0.02,,,0.64,weatherlink.com 1.10,2013-01-30 10:58:00,
2013-01-30 06:13:00,49.7,49.0,29.33,East,84,5.0,10.0,97,0.00,,,0.64,weatherlink.com 1.10,2013-01-30 11:13:00,
2013-01-30 06:28:00,49.6,49.0,29.29,ENE,66,5.0,10.0,97,0.00,,,0.64,weatherlink.com 1.10,2013-01-30 11:28:00,
2013-01-30 06:43:00,49.5,49.0,29.27,East,79,9.0,12.0,97,0.00,,,0.64,weatherlink.com 1.10,2013-01-30 11:43:00,
2013-01-30 06:58:00,49.5,49.0,29.30,East,86,10.0,14.0,97,0.00,,,0.64,weatherlink.com 1.10,2013-01-30 11:58:00,
2013-01-30 07:13:00,49.4,49.0,29.32,East,98,8.0,14.0,97,0.00,,,0.64,weatherlink.com 1.10,2013-01-30 12:13:00,
2013-01-30 07:28:00,49.3,49.0,29.27,East,80,11.0,15.0,97,0.00,,,0.64,weatherlink.com 1.10,2013-01-30 12:28:00,
2013-01-30 07:43:00,49.2,48.0,29.25,East,83,9.0,13.0,97,0.00,,,0.64,weatherlink.com 1.10,2013-01-30 12:43:00,
2013-01-30 07:58:00,49.3,49.0,29.26,East,81,14.0,17.0,97,0.00,,,0.64,weatherlink.com 1.10,2013-01-30 12:58:00,
2013-01-30 08:13:00,49.3,49.0,29.27,ESE,105,11.0,16.0,97,0.00,,,0.64,weatherlink.com 1.10,2013-01-30 13:13:00,
2013-01-30 08:28:00,49.5,49.0,29.29,ESE,109,9.0,14.0,97,0.00,,,0.64,weatherlink.com 1.10,2013-01-30 13:28:00,
2013-01-30 08:43:00,49.5,49.0,29.31,East,90,10.0,21.0,97,0.00,,,0.64,weatherlink.com 1.10,2013-01-30 13:43:00,
2013-01-30 08:58:00,49.6,49.0,29.32,ESE,116,5.0,15.0,97,0.00,,,0.64,weatherlink.com 1.10,2013-01-30 13:58:00,
2013-01-30 09:13:00,49.4,49.0,29.33,SSE,152,0.0,10.0,97,0.00,,,0.64,weatherlink.com 1.10,2013-01-30 14:13:00,
2013-01-30 09:28:00,49.2,48.0,29.34,SSE,167,3.0,8.0,97,0.00,,,0.64,weatherlink.com 1.10,2013-01-30 14:28:00,
2013-01-30 09:44:00,49.0,48.0,29.33,South,170,2.0,5.0,97,0.00,,,0.64,weatherlink.com 1.10,2013-01-30 14:44:00,
2013-01-30 09:59:00,49.0,48.0,29.30,SSE,152,0.0,5.0,97,0.00,,,0.64,weatherlink.com 1.10,2013-01-30 14:59:00,
2013-01-30 10:14:00,49.3,49.0,29.32,SE,134,3.0,5.0,97,0.00,,,0.64,weatherlink.com 1.10,2013-01-30 15:14:00,
2013-01-30 10:29:00,49.4,49.0,29.31,ESE,109,1.0,7.0,97,0.00,,,0.64,weatherlink.com 1.10,2013-01-30 15:29:00,
2013-01-30 10:44:00,49.6,49.0,29.30,SE,131,2.0,5.0,97,0.00,,,0.64,weatherlink.com 1.10,2013-01-30 15:44:00,
2013-01-30 10:59:00,49.8,49.0,29.29,SE,132,3.0,5.0,98,0.00,,,0.64,weatherlink.com 1.10,2013-01-30 15:59:00,
2013-01-30 11:14:00,50.2,49.0,29.30,ESE,117,4.0,11.0,97,0.00,,,0.64,weatherlink.com 1.10,2013-01-30 16:14:00,
2013-01-30 11:29:00,50.3,50.0,29.29,SE,130,2.0,9.0,97,0.00,,,0.64,weatherlink.com 1.10,2013-01-30 16:29:00,
2013-01-30 11:44:00,50.4,50.0,29.29,SE,138,3.0,8.0,97,0.00,,,0.64,weatherlink.com 1.10,2013-01-30 16:44:00,
2013-01-30 11:59:00,50.6,50.0,29.27,SE,136,5.0,10.0,97,0.00,,,0.64,weatherlink.com 1.10,2013-01-30 16:59:00,
2013-01-30 12:14:00,50.8,50.0,29.27,ESE,121,7.0,11.0,96,0.00,,,0.64,weatherlink.com 1.10,2013-01-30 17:14:00,
2013-01-30 12:29:00,50.9,50.0,29.27,SE,134,7.0,8.0,96,0.00,,,0.64,weatherlink.com 1.10,2013-01-30 17:29:00,
2013-01-30 12:44:00,51.1,50.0,29.27,SE,132,8.0,12.0,94,0.00,,,0.64,weatherlink.com 1.10,2013-01-30 17:44:00,
2013-01-30 12:59:00,51.8,50.0,29.27,SE,124,5.0,12.0,94,0.00,,,0.64,weatherlink.com 1.10,2013-01-30 17:59:00,
2013-01-30 13:14:00,52.6,50.0,29.25,SE,124,7.0,15.0,92,0.00,,,0.64,weatherlink.com 1.10,2013-01-30 18:14:00,
2013-01-30 13:29:00,53.6,51.0,29.24,ESE,112,7.0,22.0,90,0.00,,,0.64,weatherlink.com 1.10,2013-01-30 18:29:00,
2013-01-30 13:44:00,53.3,51.0,29.23,SE,124,7.0,18.0,90,0.00,,,0.64,weatherlink.com 1.10,2013-01-30 18:44:00,
2013-01-30 13:59:00,52.7,50.0,29.22,East,99,7.0,19.0,90,0.00,,,0.64,weatherlink.com 1.10,2013-01-30 18:59:00,
2013-01-30 14:14:00,51.9,49.0,29.20,SE,142,5.0,11.0,90,0.00,,,0.64,weatherlink.com 1.10,2013-01-30 19:14:00,
2013-01-30 14:29:00,51.7,49.0,29.20,SE,138,6.0,10.0,91,0.01,,,0.65,weatherlink.com 1.10,2013-01-30 19:29:00,
2013-01-30 14:44:00,51.7,49.0,29.21,SE,140,7.0,11.0,91,0.01,,,0.65,weatherlink.com 1.10,2013-01-30 19:44:00,
2013-01-30 14:59:00,47.1,45.0,29.23,South,169,13.0,22.0,93,0.02,,,0.66,weatherlink.com 1.10,2013-01-30 19:59:00,
2013-01-30 15:14:00,44.9,43.0,29.23,South,171,11.0,22.0,93,0.02,,,0.66,weatherlink.com 1.10,2013-01-30 20:14:00,
2013-01-30 15:29:00,43.4,42.0,29.23,SSW,200,7.0,20.0,94,0.01,,,0.66,weatherlink.com 1.10,2013-01-30 20:29:00,
2013-01-30 15:44:00,41.8,40.0,29.25,South,185,14.0,22.0,92,0.01,,,0.66,weatherlink.com 1.10,2013-01-30 20:44:00,
2013-01-30 15:59:00,41.2,39.0,29.25,South,182,10.0,22.0,93,0.00,,,0.66,weatherlink.com 1.10,2013-01-30 20:59:00,
2013-01-30 16:14:00,40.9,39.0,29.26,South,180,14.0,19.0,94,0.01,,,0.67,weatherlink.com 1.10,2013-01-30 21:14:00,
2013-01-30 16:29:00,39.4,38.0,29.27,South,191,15.0,20.0,93,0.02,,,0.68,weatherlink.com 1.10,2013-01-30 21:29:00,
2013-01-30 16:44:00,38.4,37.0,29.27,South,185,20.0,22.0,93,0.03,,,0.69,weatherlink.com 1.10,2013-01-30 21:44:00,
2013-01-30 16:59:00,38.2,36.0,29.28,South,175,13.0,18.0,92,0.03,,,0.69,weatherlink.com 1.10,2013-01-30 21:59:00,
2013-01-30 17:14:00,37.3,35.0,29.29,South,191,10.0,21.0,92,0.03,,,0.70,weatherlink.com 1.10,2013-01-30 22:14:00,
2013-01-30 17:29:00,37.1,35.0,29.29,South,176,8.0,18.0,91,0.01,,,0.70,weatherlink.com 1.10,2013-01-30 22:29:00,
2013-01-30 17:44:00,37.0,35.0,29.30,SSE,161,9.0,19.0,91,0.01,,,0.70,weatherlink.com 1.10,2013-01-30 22:44:00,
2013-01-30 17:59:00,36.8,34.0,29.30,South,178,17.0,21.0,90,0.01,,,0.70,weatherlink.com 1.10,2013-01-30 22:59:00,
2013-01-30 18:14:00,36.5,34.0,29.31,SSE,164,5.0,21.0,90,0.00,,,0.70,weatherlink.com 1.10,2013-01-30 23:14:00,
2013-01-30 18:29:00,35.1,33.0,29.33,SSW,192,18.0,26.0,92,0.00,,,0.70,weatherlink.com 1.10,2013-01-30 23:29:00,
2013-01-30 18:44:00,34.4,33.0,29.34,South,180,18.0,24.0,93,0.00,,,0.70,weatherlink.com 1.10,2013-01-30 23:44:00,
2013-01-30 18:59:00,33.8,32.0,29.35,South,177,16.0,23.0,94,0.00,,,0.70,weatherlink.com 1.10,2013-01-30 23:59:00,
2013-01-30 19:15:00,33.6,32.0,29.36,South,180,15.0,27.0,94,0.00,,,0.70,weatherlink.com 1.10,2013-01-31 00:15:00,
2013-01-30 19:30:00,33.0,31.0,29.37,South,186,21.0,31.0,92,0.00,,,0.70,weatherlink.com 1.10,2013-01-31 00:30:00,
2013-01-30 19:45:00,32.6,31.0,29.37,South,188,15.0,26.0,93,0.00,,,0.70,weatherlink.com 1.10,2013-01-31 00:45:00,
2013-01-30 20:00:00,32.2,30.0,29.37,South,171,17.0,24.0,93,0.00,,,0.70,weatherlink.com 1.10,2013-01-31 01:00:00,
2013-01-30 20:15:00,31.8,30.0,29.38,South,182,16.0,25.0,94,0.00,,,0.70,weatherlink.com 1.10,2013-01-31 01:15:00,
2013-01-30 20:30:00,31.3,30.0,29.39,SSW,207,13.0,26.0,94,0.00,,,0.70,weatherlink.com 1.10,2013-01-31 01:30:00,
2013-01-30 20:45:00,31.2,30.0,29.39,South,188,20.0,24.0,94,0.00,,,0.70,weatherlink.com 1.10,2013-01-31 01:45:00,
2013-01-30 21:00:00,31.1,30.0,29.40,South,179,22.0,24.0,94,0.00,,,0.70,weatherlink.com 1.10,2013-01-31 02:00:00,
2013-01-30 21:15:00,31.0,30.0,29.41,South,187,16.0,22.0,94,0.00,,,0.70,weatherlink.com 1.10,2013-01-31 02:15:00,
2013-01-30 21:30:00,30.5,29.0,29.43,SSW,200,18.0,24.0,94,0.00,,,0.70,weatherlink.com 1.10,2013-01-31 02:30:00,
2013-01-30 21:45:00,30.5,29.0,29.44,SSW,207,7.0,21.0,94,0.00,,,0.70,weatherlink.com 1.10,2013-01-31 02:45:00,
2013-01-30 22:01:00,29.9,28.0,29.45,SSW,192,21.0,25.0,93,0.00,,,0.70,weatherlink.com 1.10,2013-01-31 03:01:00,
2013-01-30 22:16:00,29.3,28.0,29.46,South,173,20.0,23.0,93,0.00,,,0.70,weatherlink.com 1.10,2013-01-31 03:16:00,
2013-01-30 22:31:00,28.9,27.0,29.48,SSW,202,15.0,24.0,93,0.00,,,0.70,weatherlink.com 1.10,2013-01-31 03:31:00,
2013-01-30 22:46:00,28.4,26.0,29.50,South,182,18.0,22.0,92,0.00,,,0.70,weatherlink.com 1.10,2013-01-31 03:46:00,
2013-01-30 23:01:00,28.2,26.0,29.51,South,183,10.0,22.0,90,0.00,,,0.70,weatherlink.com 1.10,2013-01-31 04:01:00,
2013-01-30 23:16:00,27.7,25.0,29.52,South,187,22.0,28.0,90,0.00,,,0.70,weatherlink.com 1.10,2013-01-31 04:16:00,
2013-01-30 23:31:00,27.3,25.0,29.54,SSW,193,13.0,24.0,90,0.00,,,0.70,weatherlink.com 1.10,2013-01-31 04:31:00,
2013-01-30 23:46:00,26.9,24.0,29.55,South,188,11.0,27.0,90,0.00,,,0.70,weatherlink.com 1.10,2013-01-31 04:46:00,